Time;durP1;ratioP1;P1;durP2;ratioP2;P2;SDS_P1;SDS_P2;PMS_P1;PMS_P2;Temp;Humidity;BMP_temperature;BMP_pressure;BME280_temperature;BME280_humidity;BME280_pressure;Samples;Min_cycle;Max_cycle;Signal;HPM_P1;HPM_P2
2021/04/08 00:01:15;;;;;;;10.85;4.85;;;;;;;0.04;83.71;98619.78;3552301;27;20191;-49
2021/04/08 00:02:57;;;;;;;14.65;5.93;;;;;;;0.00;83.84;98621.34;3551003;27;20054;-48
2021/04/08 00:04:38;;;;;;;12.35;5.28;;;;;;;-0.01;83.95;98624.69;3552370;27;20137;-48
2021/04/08 00:06:20;;;;;;;14.63;5.45;;;;;;;-0.04;83.99;98627.16;3552731;27;20047;-48
2021/04/08 00:08:01;;;;;;;10.68;5.70;;;;;;;-0.05;84.15;98627.09;3553389;27;20410;-48
2021/04/08 00:09:43;;;;;;;9.77;5.30;;;;;;;-0.06;84.13;98623.69;3554267;27;20053;-48
2021/04/08 00:11:24;;;;;;;13.75;6.18;;;;;;;-0.08;84.18;98632.91;3550685;27;20110;-48
2021/04/08 00:13:06;;;;;;;13.73;5.88;;;;;;;-0.10;84.06;98631.13;3553019;27;20216;-50
2021/04/08 00:14:48;;;;;;;13.52;6.65;;;;;;;-0.12;84.08;98631.06;3550820;27;20055;-48
2021/04/08 00:16:29;;;;;;;15.23;7.20;;;;;;;-0.15;84.25;98634.38;3552456;27;20077;-48
2021/04/08 00:18:11;;;;;;;12.55;5.45;;;;;;;-0.16;84.06;98640.28;3554633;27;20118;-48
2021/04/08 00:19:53;;;;;;;14.32;7.07;;;;;;;-0.16;84.46;98634.31;3553099;27;20525;-48
2021/04/08 00:21:34;;;;;;;9.43;5.40;;;;;;;-0.18;84.29;98638.50;3554543;27;20095;-49
2021/04/08 00:23:15;;;;;;;14.32;5.68;;;;;;;-0.21;84.50;98634.13;3550663;27;20084;-47
2021/04/08 00:24:56;;;;;;;15.68;6.95;;;;;;;-0.23;84.42;98640.00;3554362;27;20134;-47
2021/04/08 00:26:38;;;;;;;12.75;6.60;;;;;;;-0.26;84.67;98638.16;3550770;27;20188;-49
2021/04/08 00:28:21;;;;;;;12.75;5.20;;;;;;;-0.27;84.49;98645.75;3552144;27;20047;-50
2021/04/08 00:30:04;;;;;;;14.10;6.28;;;;;;;-0.31;84.77;98644.75;3554978;27;20760;-48
2021/04/08 00:31:46;;;;;;;12.82;5.13;;;;;;;-0.30;84.74;98646.50;3550818;27;20075;-48
2021/04/08 00:33:27;;;;;;;13.20;5.75;;;;;;;-0.32;84.94;98658.31;3554251;27;20054;-48
2021/04/08 00:35:09;;;;;;;11.85;5.63;;;;;;;-0.34;84.78;98645.53;3550675;27;20086;-48
2021/04/08 00:36:51;;;;;;;12.18;6.20;;;;;;;-0.37;84.71;98660.69;3554088;27;20046;-50
2021/04/08 00:38:32;;;;;;;13.02;6.80;;;;;;;-0.38;84.88;98656.41;3550283;27;20392;-61
2021/04/08 00:40:15;;;;;;;11.45;5.50;;;;;;;-0.39;84.90;98657.19;3552082;27;20054;-61
2021/04/08 00:41:57;;;;;;;14.68;7.05;;;;;;;-0.40;84.95;98662.22;3553019;27;20050;-61
2021/04/08 00:43:39;;;;;;;12.63;6.90;;;;;;;-0.42;84.88;98669.81;3553075;27;20437;-61
2021/04/08 00:45:22;;;;;;;13.32;6.68;;;;;;;-0.44;85.05;98662.94;3554278;27;20231;-61
2021/04/08 00:47:03;;;;;;;12.00;6.28;;;;;;;-0.46;85.04;98665.41;3551652;27;20039;-61
2021/04/08 00:48:44;;;;;;;11.85;5.85;;;;;;;-0.47;85.27;98676.38;3554107;27;20084;-61
2021/04/08 00:50:26;;;;;;;14.50;6.82;;;;;;;-0.49;85.20;98672.91;3550346;27;20047;-61
2021/04/08 00:52:08;;;;;;;13.52;6.70;;;;;;;-0.51;85.32;98674.53;3552272;27;20491;-61
2021/04/08 00:53:51;;;;;;;11.07;6.22;;;;;;;-0.51;85.31;98678.78;3552801;27;20047;-60
2021/04/08 00:55:36;;;;;;;11.40;5.57;;;;;;;-0.53;85.30;98678.69;3550954;27;20051;-48
2021/04/08 00:57:17;;;;;;;14.57;7.03;;;;;;;-0.55;85.62;98676.09;3554361;27;20070;-60
2021/04/08 00:59:01;;;;;;;12.52;6.18;;;;;;;-0.56;85.67;98681.09;3550315;27;20039;-60
2021/04/08 01:00:43;;;;;;;15.95;7.07;;;;;;;-0.57;85.38;98684.44;3553890;27;20486;-48
2021/04/08 01:02:25;;;;;;;12.93;6.95;;;;;;;-0.60;85.54;98687.75;3552619;27;20514;-48
2021/04/08 01:04:06;;;;;;;12.57;4.93;;;;;;;-0.60;85.54;98695.41;3551879;27;20107;-47
2021/04/08 01:05:48;;;;;;;12.95;5.72;;;;;;;-0.62;85.68;98691.91;3552678;27;20062;-60
2021/04/08 01:07:32;;;;;;;15.27;7.03;;;;;;;-0.64;85.77;98688.44;3550564;27;20047;-60
2021/04/08 01:09:14;;;;;;;12.02;6.57;;;;;;;-0.65;85.74;98686.69;3553761;27;20090;-60
2021/04/08 01:10:55;;;;;;;10.38;6.13;;;;;;;-0.64;85.77;98688.44;3550232;27;20043;-60
2021/04/08 01:12:37;;;;;;;13.32;7.15;;;;;;;-0.64;85.53;98690.09;3553249;27;20047;-58
2021/04/08 01:14:19;;;;;;;13.30;7.05;;;;;;;-0.64;85.67;98688.44;3549579;27;20047;-60
2021/04/08 01:16:05;;;;;;;10.82;5.63;;;;;;;-0.64;85.68;98693.53;3551065;27;20050;-60
2021/04/08 01:17:50;;;;;;;14.57;6.57;;;;;;;-0.64;85.64;98688.44;3553168;27;20052;-60
2021/04/08 01:20:15;;;;;;;13.05;6.43;;;;;;;-0.65;85.53;98690.91;3550141;27;20055;-60
2021/04/08 01:22:05;;;;;;;10.18;6.03;;;;;;;-0.64;85.58;98697.75;3551066;27;20051;-59
2021/04/08 01:24:11;;;;;;;11.70;6.75;;;;;;;-0.65;85.76;98694.31;3553389;27;20135;-59
2021/04/08 01:26:15;;;;;;;12.05;6.18;;;;;;;-0.65;85.75;98698.56;3550094;27;20062;-59
2021/04/08 01:28:09;;;;;;;11.60;6.55;;;;;;;-0.66;85.48;98707.00;3552936;27;20082;-59
2021/04/08 01:30:08;;;;;;;15.55;6.70;;;;;;;-0.64;85.53;98708.81;3554027;27;20058;-46
2021/04/08 01:31:52;;;;;;;15.73;7.53;;;;;;;-0.64;85.38;98713.03;3530459;27;20054;-47
2021/04/08 01:33:40;;;;;;;12.85;7.45;;;;;;;-0.66;85.76;98712.09;3552078;27;20567;-47
2021/04/08 01:35:26;;;;;;;11.93;6.18;;;;;;;-0.67;85.71;98716.31;3552218;27;20112;-57
2021/04/08 01:37:11;;;;;;;12.35;5.95;;;;;;;-0.66;85.76;98722.28;3550971;27;20054;-57
2021/04/08 01:38:56;;;;;;;11.80;7.03;;;;;;;-0.67;85.35;98715.47;3553773;27;20057;-57
2021/04/08 01:40:39;;;;;;;14.35;8.15;;;;;;;-0.67;85.51;98718.00;3551478;27;20051;-46
2021/04/08 01:42:22;;;;;;;16.25;6.97;;;;;;;-0.68;85.51;98722.19;3553319;27;20043;-47
2021/04/08 01:44:07;;;;;;;15.68;7.30;;;;;;;-0.66;85.60;98732.47;3550978;27;20043;-56
2021/04/08 01:45:50;;;;;;;12.55;7.05;;;;;;;-0.66;85.51;98722.28;3552568;27;20042;-46
2021/04/08 01:47:35;;;;;;;13.70;6.60;;;;;;;-0.68;85.48;98729.84;3553524;27;20058;-47
2021/04/08 01:49:18;;;;;;;12.60;7.35;;;;;;;-0.70;85.90;98728.06;3551216;27;20043;-47
2021/04/08 01:51:04;;;;;;;14.00;7.55;;;;;;;-0.72;85.79;98728.84;3553428;27;20086;-46
2021/04/08 01:52:48;;;;;;;14.50;6.65;;;;;;;-0.74;85.65;98735.56;3549856;27;20051;-46
2021/04/08 01:54:32;;;;;;;13.77;7.43;;;;;;;-0.75;85.73;98740.56;3551157;27;20534;-46
2021/04/08 01:56:16;;;;;;;21.05;7.07;;;;;;;-0.75;86.02;98744.00;3551811;27;20565;-46
2021/04/08 01:57:59;;;;;;;17.27;7.90;;;;;;;-0.76;85.92;98744.81;3551932;27;20058;-46
2021/04/08 01:59:43;;;;;;;14.90;7.90;;;;;;;-0.77;85.84;98745.59;3553017;27;20107;-46
2021/04/08 02:01:25;;;;;;;19.13;8.15;;;;;;;-0.78;85.89;98748.09;3552289;27;20051;-57
2021/04/08 02:03:10;;;;;;;14.07;8.15;;;;;;;-0.80;86.01;98753.13;3552878;27;20507;-57
2021/04/08 02:04:52;;;;;;;18.15;8.73;;;;;;;-0.82;86.20;98757.25;3552309;27;20046;-58
2021/04/08 02:06:37;;;;;;;16.05;7.55;;;;;;;-0.82;86.26;98762.34;3552437;27;20043;-45
2021/04/08 02:08:19;;;;;;;13.13;7.22;;;;;;;-0.83;86.22;98764.84;3552171;27;20107;-57
2021/04/08 02:10:01;;;;;;;14.43;8.07;;;;;;;-0.85;86.07;98767.31;3551170;27;20415;-46
2021/04/08 02:11:47;;;;;;;15.60;8.45;;;;;;;-0.86;86.19;98768.13;3553958;27;20419;-57
2021/04/08 02:13:30;;;;;;;16.00;7.82;;;;;;;-0.86;86.16;98772.34;3547994;27;20050;-57
2021/04/08 02:15:13;;;;;;;17.55;9.15;;;;;;;-0.87;86.27;98773.13;3550993;27;20070;-56
2021/04/08 02:16:57;;;;;;;13.38;6.15;;;;;;;-0.87;86.27;98781.66;3551761;27;20095;-57
2021/04/08 02:18:40;;;;;;;13.52;8.27;;;;;;;-0.88;86.26;98781.59;3551698;27;20562;-56
2021/04/08 02:20:25;;;;;;;17.05;8.02;;;;;;;-0.89;86.42;98785.78;3539272;28;20078;-57
2021/04/08 02:22:07;;;;;;;13.52;7.35;;;;;;;-0.90;86.22;98786.63;3549130;27;20043;-46
2021/04/08 02:23:51;;;;;;;12.43;7.93;;;;;;;-0.91;86.45;98789.94;3552719;27;20099;-46
2021/04/08 02:25:35;;;;;;;18.35;8.88;;;;;;;-0.93;86.75;98779.69;3550316;27;20067;-57
2021/04/08 02:27:16;;;;;;;17.02;8.85;;;;;;;-0.92;86.47;98785.69;3550914;27;20047;-57
2021/04/08 02:28:58;;;;;;;16.17;7.93;;;;;;;-0.92;86.45;98786.53;3553110;27;20105;-56
2021/04/08 02:30:46;;;;;;;18.23;8.60;;;;;;;-0.92;86.57;98784.00;3549222;27;20054;-57
2021/04/08 02:32:29;;;;;;;15.85;6.90;;;;;;;-0.92;86.47;98788.22;3553066;27;20043;-57
2021/04/08 02:34:12;;;;;;;14.15;7.40;;;;;;;-0.93;86.30;98787.34;3549590;27;20050;-56
2021/04/08 02:35:54;;;;;;;17.00;9.40;;;;;;;-0.94;86.21;98790.69;3551302;27;20544;-57
2021/04/08 02:37:37;;;;;;;14.50;8.35;;;;;;;-0.95;86.39;98793.16;3551045;27;20055;-46
2021/04/08 02:39:18;;;;;;;17.55;8.60;;;;;;;-0.95;86.46;98793.16;3549441;27;20492;-45
2021/04/08 02:41:01;;;;;;;12.90;6.88;;;;;;;-0.96;86.24;98799.06;3553251;27;20232;-45
2021/04/08 02:42:42;;;;;;;16.42;9.13;;;;;;;-0.98;86.46;98804.06;3549377;27;20054;-45
2021/04/08 02:44:24;;;;;;;21.65;9.50;;;;;;;-0.99;86.28;98812.53;3553313;27;20042;-57
2021/04/08 02:46:05;;;;;;;17.45;9.02;;;;;;;-1.00;86.37;98815.88;3549186;27;20123;-57
2021/04/08 02:47:47;;;;;;;15.63;8.82;;;;;;;-1.01;86.42;98818.34;3551008;27;20069;-57
2021/04/08 02:49:29;;;;;;;16.05;8.95;;;;;;;-1.03;86.44;98818.28;3551219;27;20050;-57
2021/04/08 02:51:16;;;;;;;14.32;7.80;;;;;;;-1.05;86.48;98816.47;3551035;27;20460;-57
2021/04/08 02:53:02;;;;;;;22.65;10.35;;;;;;;-1.06;86.56;98818.16;3538560;28;20401;-57
2021/04/08 02:54:48;;;;;;;20.08;9.98;;;;;;;-1.06;86.42;98822.38;3546191;27;20038;-56
2021/04/08 02:56:40;;;;;;;24.25;10.73;;;;;;;-1.06;86.33;98830.00;3552012;27;20054;-57
2021/04/08 02:58:26;;;;;;;19.85;9.27;;;;;;;-1.10;86.54;98822.22;3550145;27;20095;-57
2021/04/08 03:00:11;;;;;;;16.27;7.53;;;;;;;-1.11;86.31;98830.66;3549595;27;20050;-57
2021/04/08 03:01:55;;;;;;;22.30;10.95;;;;;;;-1.12;86.63;98831.47;3538749;28;20051;-56
2021/04/08 03:03:42;;;;;;;21.67;9.75;;;;;;;-1.13;86.46;98836.47;3546184;27;20522;-57
2021/04/08 03:05:26;;;;;;;17.85;8.20;;;;;;;-1.13;86.29;98836.47;3552064;27;20210;-57
2021/04/08 03:07:09;;;;;;;21.58;10.25;;;;;;;-1.14;86.44;98844.91;3549658;27;20103;-57
2021/04/08 03:08:53;;;;;;;15.15;7.15;;;;;;;-1.14;86.42;98845.75;3549424;27;20411;-45
2021/04/08 03:10:36;;;;;;;19.45;9.85;;;;;;;-1.15;86.52;98848.28;3552263;27;20514;-45
2021/04/08 03:12:20;;;;;;;22.00;10.40;;;;;;;-1.14;86.59;98853.41;3548806;27;20129;-45
2021/04/08 03:14:06;;;;;;;20.25;8.98;;;;;;;-1.14;86.52;98848.31;3551019;27;20061;-45
2021/04/08 03:15:47;;;;;;;18.75;9.25;;;;;;;-1.14;86.34;98855.09;3551143;27;20092;-45
2021/04/08 03:17:34;;;;;;;17.42;9.80;;;;;;;-1.15;86.28;98854.22;3550974;27;20557;-45
2021/04/08 03:19:21;;;;;;;20.10;9.90;;;;;;;-1.17;86.51;98858.38;3550370;27;20050;-57
2021/04/08 03:21:05;;;;;;;17.80;9.20;;;;;;;-1.19;86.38;98859.97;3549915;27;20043;-57
2021/04/08 03:22:49;;;;;;;13.40;7.15;;;;;;;-1.19;86.49;98862.53;3552664;27;20081;-57
2021/04/08 03:24:32;;;;;;;18.98;10.05;;;;;;;-1.17;86.39;98870.19;3550296;27;20435;-57
2021/04/08 03:26:14;;;;;;;17.08;8.02;;;;;;;-1.18;86.39;98868.47;3551694;27;20047;-57
2021/04/08 03:27:56;;;;;;;18.58;9.93;;;;;;;-1.19;86.12;98864.16;3552139;27;20055;-57
2021/04/08 03:29:40;;;;;;;20.75;10.80;;;;;;;-1.21;86.36;98873.41;3551261;27;20051;-57
2021/04/08 03:31:22;;;;;;;21.35;11.13;;;;;;;-1.21;86.49;98870.88;3552124;27;20046;-57
2021/04/08 03:33:04;;;;;;;20.27;11.23;;;;;;;-1.21;86.32;98876.81;3549793;27;20397;-57
2021/04/08 03:34:47;;;;;;;16.88;8.98;;;;;;;-1.21;86.29;98883.59;3552607;27;20050;-57
2021/04/08 03:36:29;;;;;;;18.77;8.23;;;;;;;-1.22;86.49;98882.72;3551563;27;20053;-57
2021/04/08 03:38:11;;;;;;;20.30;10.63;;;;;;;-1.22;86.52;98880.19;3553196;27;20055;-57
2021/04/08 03:39:53;;;;;;;25.10;10.88;;;;;;;-1.23;86.21;98882.66;3553662;27;20046;-57
2021/04/08 03:41:37;;;;;;;19.60;9.65;;;;;;;-1.23;86.32;98885.19;3552686;27;20051;-57
2021/04/08 03:43:20;;;;;;;15.65;8.10;;;;;;;-1.24;86.48;98893.63;3554344;27;20053;-57
2021/04/08 03:45:02;;;;;;;20.10;10.10;;;;;;;-1.23;86.29;98892.81;3551130;27;20038;-57
2021/04/08 03:46:45;;;;;;;22.80;10.88;;;;;;;-1.25;86.44;98887.66;3555086;27;20047;-57
2021/04/08 03:48:28;;;;;;;21.80;9.70;;;;;;;-1.24;86.44;98891.97;3551410;27;20055;-57
2021/04/08 03:50:11;;;;;;;23.58;10.88;;;;;;;-1.23;86.52;98896.22;3552400;27;20043;-57
2021/04/08 03:51:54;;;;;;;21.05;10.85;;;;;;;-1.20;86.39;98905.69;3553374;27;20054;-57
2021/04/08 03:53:38;;;;;;;21.60;10.77;;;;;;;-1.19;86.45;98904.88;3551022;27;20535;-55
2021/04/08 03:55:21;;;;;;;23.67;10.93;;;;;;;-1.19;86.41;98903.22;3554778;27;20050;-57
2021/04/08 03:57:05;;;;;;;19.90;10.85;;;;;;;-1.16;86.13;98905.03;3550984;27;20486;-57
2021/04/08 03:58:47;;;;;;;25.30;11.20;;;;;;;-1.14;86.16;98909.38;3554222;27;20061;-57
2021/04/08 04:00:28;;;;;;;19.23;9.00;;;;;;;-1.12;86.15;98912.00;3551838;27;20070;-57
2021/04/08 04:02:10;;;;;;;19.83;9.93;;;;;;;-1.08;85.97;98907.94;3553691;27;20047;-46
2021/04/08 04:03:52;;;;;;;20.83;11.00;;;;;;;-1.06;85.87;98914.84;3554284;27;20050;-46
2021/04/08 04:05:34;;;;;;;22.92;11.13;;;;;;;-1.05;85.62;98914.03;3553103;27;20475;-45
2021/04/08 04:07:18;;;;;;;18.05;10.35;;;;;;;-1.02;85.84;98915.88;3554492;27;20103;-45
2021/04/08 04:09:00;;;;;;;23.20;10.77;;;;;;;-0.99;85.49;98918.56;3553199;27;20047;-45
2021/04/08 04:10:42;;;;;;;18.10;9.90;;;;;;;-0.97;85.63;98916.97;3554010;27;20050;-46
2021/04/08 04:12:23;;;;;;;23.55;10.57;;;;;;;-0.94;85.30;98928.16;3551553;27;20045;-45
2021/04/08 04:14:07;;;;;;;23.45;11.07;;;;;;;-0.91;85.29;98925.78;3550921;27;20043;-45
2021/04/08 04:15:49;;;;;;;19.65;10.20;;;;;;;-0.87;85.24;98923.34;3552713;27;20062;-46
2021/04/08 04:17:32;;;;;;;21.20;10.10;;;;;;;-0.84;84.87;98931.13;3550988;27;21055;-57
2021/04/08 04:19:13;;;;;;;17.38;9.75;;;;;;;-0.80;84.78;98925.38;3554273;27;20578;-57
2021/04/08 04:20:55;;;;;;;24.48;11.80;;;;;;;-0.78;85.00;98927.22;3550836;27;20050;-57
2021/04/08 04:22:39;;;;;;;19.67;10.48;;;;;;;-0.74;84.87;98926.53;3553419;27;20054;-57
2021/04/08 04:24:20;;;;;;;22.52;10.05;;;;;;;-0.68;84.82;98935.25;3552485;27;20085;-57
2021/04/08 04:26:01;;;;;;;22.00;10.60;;;;;;;-0.65;84.71;98936.28;3551072;27;20103;-43
2021/04/08 04:27:44;;;;;;;27.20;11.98;;;;;;;-0.60;84.54;98944.13;3554222;27;20070;-45
2021/04/08 04:29:25;;;;;;;23.88;12.40;;;;;;;-0.57;84.67;98939.16;3550560;27;20432;-44
2021/04/08 04:31:06;;;;;;;18.45;7.82;;;;;;;-0.51;84.41;98947.09;3554142;27;20055;-44
2021/04/08 04:32:48;;;;;;;29.67;13.73;;;;;;;-0.46;84.06;98945.63;3550744;27;20054;-45
2021/04/08 04:34:29;;;;;;;28.95;12.70;;;;;;;-0.41;83.93;98945.81;3553283;27;20575;-44
2021/04/08 04:36:11;;;;;;;25.33;12.23;;;;;;;-0.36;83.67;98954.56;3551805;27;20106;-45
2021/04/08 04:37:53;;;;;;;25.73;12.27;;;;;;;-0.31;83.73;98953.09;3552053;27;24530;-45
2021/04/08 04:39:35;;;;;;;30.10;14.52;;;;;;;-0.27;83.31;98957.53;3552882;27;20534;-45
2021/04/08 04:41:16;;;;;;;24.02;12.93;;;;;;;-0.20;83.45;98956.13;3550507;27;20099;-47
2021/04/08 04:42:58;;;;;;;31.55;13.25;;;;;;;-0.15;83.07;98958.09;3554365;27;20047;-49
2021/04/08 04:44:40;;;;;;;29.00;14.30;;;;;;;-0.11;83.13;98958.19;3550457;27;20103;-46
2021/04/08 04:46:21;;;;;;;29.58;14.35;;;;;;;-0.05;82.98;98961.03;3552925;27;20579;-46
2021/04/08 04:48:09;;;;;;;30.33;13.45;;;;;;;0.01;82.62;98961.28;3550879;27;20235;-49
2021/04/08 04:49:50;;;;;;;27.58;12.45;;;;;;;0.08;82.25;98954.78;3550777;27;20058;-49
2021/04/08 04:51:32;;;;;;;25.77;11.60;;;;;;;0.13;82.25;98955.88;3554161;27;20156;-57
2021/04/08 04:53:14;;;;;;;28.42;13.90;;;;;;;0.18;82.27;98954.38;3550271;27;20053;-58
2021/04/08 04:54:56;;;;;;;24.25;11.35;;;;;;;0.24;82.06;98959.72;3554158;27;20054;-56
2021/04/08 04:56:37;;;;;;;28.73;14.07;;;;;;;0.28;81.75;98953.97;3552637;27;20081;-57
2021/04/08 04:58:18;;;;;;;29.60;14.32;;;;;;;0.32;81.54;98960.94;3552134;27;20050;-57
2021/04/08 05:00:00;;;;;;;29.70;13.15;;;;;;;0.36;81.48;98967.06;3551545;27;20078;-57
2021/04/08 05:01:41;;;;;;;25.90;13.25;;;;;;;0.40;81.26;98961.25;3550489;27;20050;-58
2021/04/08 05:03:23;;;;;;;27.60;12.82;;;;;;;0.46;81.51;98955.56;3553939;27;20146;-57
2021/04/08 05:05:05;;;;;;;22.88;12.02;;;;;;;0.52;81.48;98959.22;3550471;27;20074;-57
2021/04/08 05:06:47;;;;;;;26.33;13.68;;;;;;;0.55;81.24;98956.81;3553840;27;20050;-57
2021/04/08 05:08:29;;;;;;;24.25;12.30;;;;;;;0.63;80.84;98957.16;3550440;27;20050;-51
2021/04/08 05:10:11;;;;;;;26.55;12.30;;;;;;;0.68;80.69;98965.84;3552582;27;20058;-50
2021/04/08 05:11:52;;;;;;;23.48;12.40;;;;;;;0.72;80.74;98964.28;3551642;27;20051;-52
2021/04/08 05:13:33;;;;;;;25.60;12.98;;;;;;;0.75;80.52;98974.63;3551123;27;20050;-52
2021/04/08 05:15:15;;;;;;;23.80;12.65;;;;;;;0.80;80.29;98975.69;3553773;27;20102;-52
2021/04/08 05:16:57;;;;;;;23.15;11.90;;;;;;;0.86;80.29;98975.97;3550106;27;20043;-53
2021/04/08 05:18:39;;;;;;;23.38;11.95;;;;;;;0.88;79.73;98976.88;3553766;27;20102;-49
2021/04/08 05:20:20;;;;;;;20.52;10.23;;;;;;;0.92;79.44;98981.28;3552233;27;20046;-50
2021/04/08 05:22:02;;;;;;;19.00;9.98;;;;;;;0.96;79.79;98982.28;3552001;27;20085;-51
2021/04/08 05:23:46;;;;;;;20.85;10.43;;;;;;;1.01;79.33;98987.59;3551353;27;20058;-54
2021/04/08 05:25:27;;;;;;;20.02;11.90;;;;;;;1.01;79.30;98978.25;3552492;27;20076;-55
2021/04/08 05:27:09;;;;;;;25.77;9.85;;;;;;;1.06;79.17;98984.41;3553444;27;20057;-52
2021/04/08 05:28:54;;;;;;;19.65;10.68;;;;;;;1.06;78.67;98986.97;3550188;27;20043;-54
2021/04/08 05:30:37;;;;;;;24.75;11.88;;;;;;;1.09;78.60;98983.66;3553743;27;20050;-54
2021/04/08 05:32:18;;;;;;;19.00;9.40;;;;;;;1.09;78.82;98991.31;3549876;27;20050;-52
2021/04/08 05:34:00;;;;;;;18.60;10.13;;;;;;;1.13;79.07;98991.50;3552444;27;20042;-50
2021/04/08 05:35:42;;;;;;;23.23;12.07;;;;;;;1.14;78.23;98995.81;3553496;27;20051;-51
2021/04/08 05:37:23;;;;;;;24.08;11.90;;;;;;;1.17;79.09;98993.38;3550018;27;20039;-49
2021/04/08 05:39:05;;;;;;;21.75;11.02;;;;;;;1.25;78.42;98997.91;3553417;27;20051;-49
2021/04/08 05:40:47;;;;;;;21.17;10.32;;;;;;;1.31;78.45;99000.72;3550158;27;20074;-50
2021/04/08 05:42:28;;;;;;;22.13;11.65;;;;;;;1.38;78.70;99007.81;3553407;27;20100;-49
2021/04/08 05:44:09;;;;;;;21.95;11.13;;;;;;;1.46;78.02;99006.44;3549585;27;20078;-49
2021/04/08 05:45:51;;;;;;;20.02;9.57;;;;;;;1.46;78.13;99009.00;3552211;27;20043;-53
2021/04/08 05:47:32;;;;;;;24.48;12.52;;;;;;;1.46;77.96;99008.09;3552401;27;20092;-52
2021/04/08 05:49:13;;;;;;;23.88;12.30;;;;;;;1.51;78.24;99006.59;3549831;27;20047;-54
2021/04/08 05:50:55;;;;;;;19.90;11.25;;;;;;;1.61;78.79;99005.28;3553379;27;20058;-49
2021/04/08 05:52:37;;;;;;;21.95;11.77;;;;;;;1.71;78.96;99005.69;3549895;27;20074;-49
2021/04/08 05:54:19;;;;;;;21.27;10.88;;;;;;;1.79;78.06;99007.66;3553447;27;20083;-49
2021/04/08 05:56:00;;;;;;;20.77;10.43;;;;;;;1.81;77.46;99016.25;3549600;27;20057;-51
2021/04/08 05:57:41;;;;;;;21.00;9.70;;;;;;;1.86;77.94;99005.38;3551130;27;20057;-50
2021/04/08 05:59:23;;;;;;;22.70;12.38;;;;;;;1.83;78.54;99020.63;3551291;27;20047;-48
2021/04/08 06:01:04;;;;;;;22.48;12.07;;;;;;;1.86;78.23;99020.72;3549688;27;20078;-51
2021/04/08 06:02:46;;;;;;;18.65;11.07;;;;;;;1.86;77.94;99023.28;3553173;27;20047;-49
2021/04/08 06:04:27;;;;;;;21.08;10.10;;;;;;;1.88;77.90;99021.69;3550004;27;20050;-53
2021/04/08 06:06:09;;;;;;;16.77;9.43;;;;;;;1.85;76.93;99036.03;3553321;27;20050;-50
2021/04/08 06:07:50;;;;;;;21.10;10.27;;;;;;;1.75;77.71;99024.56;3550852;27;20130;-47
2021/04/08 06:09:32;;;;;;;20.00;10.45;;;;;;;1.66;78.05;99029.34;3551094;27;20062;-51
2021/04/08 06:11:14;;;;;;;23.75;11.05;;;;;;;1.55;78.43;99021.25;3551649;27;20058;-49
2021/04/08 06:12:55;;;;;;;18.42;9.73;;;;;;;1.52;78.60;99034.78;3550028;27;20050;-53
2021/04/08 06:14:37;;;;;;;17.25;9.20;;;;;;;1.44;78.33;99032.72;3551810;27;20061;-50
2021/04/08 06:16:19;;;;;;;17.38;9.20;;;;;;;1.40;78.61;99039.41;3550457;27;20047;-53
2021/04/08 06:18:00;;;;;;;19.75;11.52;;;;;;;1.37;79.08;99041.81;3553262;27;20154;-48
2021/04/08 06:19:42;;;;;;;15.88;8.45;;;;;;;1.36;79.02;99043.53;3551816;27;20100;-50
2021/04/08 06:21:23;;;;;;;21.13;11.82;;;;;;;1.37;79.93;99049.50;3551124;27;20103;-52
2021/04/08 06:23:05;;;;;;;26.73;14.07;;;;;;;1.38;79.51;99034.22;3551517;27;20073;-48
2021/04/08 06:24:47;;;;;;;23.17;11.88;;;;;;;1.44;79.08;99046.41;3549625;27;20079;-49
2021/04/08 06:26:28;;;;;;;30.73;15.25;;;;;;;1.49;79.88;99049.97;3553011;27;20058;-49
2021/04/08 06:28:10;;;;;;;21.77;12.80;;;;;;;1.53;79.87;99049.31;3549365;27;20057;-49
2021/04/08 06:29:52;;;;;;;23.55;12.80;;;;;;;1.54;79.36;99056.16;3553042;27;20047;-48
2021/04/08 06:31:34;;;;;;;23.17;13.25;;;;;;;1.58;80.18;99057.13;3549332;27;20055;-49
2021/04/08 06:33:16;;;;;;;26.05;13.05;;;;;;;1.67;80.53;99056.63;3550965;27;20046;-49
2021/04/08 06:34:57;;;;;;;22.17;11.68;;;;;;;1.70;78.78;99067.84;3552730;27;20111;-49
2021/04/08 06:36:39;;;;;;;26.13;14.00;;;;;;;1.73;79.25;99059.44;3549404;27;20364;-52
2021/04/08 06:38:20;;;;;;;26.65;14.38;;;;;;;1.80;79.66;99066.53;3552838;27;20054;-50
2021/04/08 06:40:03;;;;;;;24.50;12.23;;;;;;;1.87;79.27;99071.06;3550227;27;20074;-49
2021/04/08 06:41:45;;;;;;;29.90;14.20;;;;;;;1.90;79.23;99065.19;3552856;27;20047;-49
2021/04/08 06:43:28;;;;;;;25.33;11.85;;;;;;;1.89;78.13;99068.56;3549260;27;20141;-49
2021/04/08 06:45:11;;;;;;;22.83;13.43;;;;;;;1.81;78.28;99070.81;3550757;27;20050;-48
2021/04/08 06:46:57;;;;;;;26.25;14.05;;;;;;;1.85;78.81;99076.97;3551296;27;20127;-48
2021/04/08 06:48:43;;;;;;;26.95;13.27;;;;;;;1.88;78.89;99071.94;3551374;27;20054;-49
2021/04/08 06:50:28;;;;;;;25.17;12.52;;;;;;;1.89;78.35;99081.38;3552681;27;20504;-48
2021/04/08 06:52:11;;;;;;;20.75;12.30;;;;;;;1.81;77.06;99090.41;3551234;27;20049;-52
2021/04/08 06:53:53;;;;;;;25.08;13.73;;;;;;;1.71;77.99;99087.50;3552373;27;20042;-48
2021/04/08 06:55:36;;;;;;;22.35;12.55;;;;;;;1.68;78.46;99095.03;3550044;27;20054;-49
2021/04/08 06:57:18;;;;;;;23.20;12.70;;;;;;;1.60;78.33;99100.66;3549021;27;20047;-48
2021/04/08 06:59:00;;;;;;;24.45;14.25;;;;;;;1.49;78.64;99105.34;3552502;27;20051;-48
2021/04/08 07:00:49;;;;;;;26.27;14.30;;;;;;;1.53;79.77;99099.53;3551420;27;20050;-50
2021/04/08 07:02:32;;;;;;;25.05;12.52;;;;;;;1.59;79.36;99110.03;3552527;27;20556;-48
2021/04/08 07:04:14;;;;;;;23.30;12.80;;;;;;;1.66;80.37;99104.34;3548903;27;20055;-49
2021/04/08 07:05:56;;;;;;;24.00;13.65;;;;;;;1.70;79.65;99102.78;3551998;27;20042;-49
2021/04/08 07:07:37;;;;;;;21.10;12.43;;;;;;;1.71;79.67;99107.09;3552591;27;20537;-49
2021/04/08 07:09:19;;;;;;;24.90;11.00;;;;;;;1.70;79.04;99095.09;3549125;27;20074;-49
2021/04/08 07:11:01;;;;;;;19.33;10.18;;;;;;;1.65;78.49;99104.28;3552065;27;20050;-49
2021/04/08 07:12:43;;;;;;;27.42;12.30;;;;;;;1.62;79.22;99101.59;3551112;27;20051;-48
2021/04/08 07:14:25;;;;;;;22.77;11.10;;;;;;;1.69;80.27;99091.69;3551357;27;20050;-49
2021/04/08 07:16:06;;;;;;;23.33;13.82;;;;;;;1.80;80.16;99098.91;3548958;27;20070;-50
2021/04/08 07:17:48;;;;;;;21.95;11.95;;;;;;;1.88;78.97;99105.19;3550653;27;20043;-49
2021/04/08 07:19:29;;;;;;;26.33;12.20;;;;;;;1.93;78.98;99109.66;3550873;27;20570;-48
2021/04/08 07:21:11;;;;;;;23.55;13.52;;;;;;;1.98;78.96;99111.53;3548883;27;20074;-48
2021/04/08 07:23:07;;;;;;;27.17;13.00;;;;;;;2.01;79.18;99104.84;3552264;27;20523;-48
2021/04/08 07:24:50;;;;;;;23.05;12.98;;;;;;;2.07;78.70;99114.44;3549488;27;20095;-59
2021/04/08 07:26:31;;;;;;;26.63;14.35;;;;;;;2.11;78.47;99117.19;3552269;27;20047;-59
2021/04/08 07:28:33;;;;;;;22.20;11.75;;;;;;;2.17;77.63;99120.81;3549624;27;20054;-60
2021/04/08 07:30:18;;;;;;;25.65;14.15;;;;;;;2.16;78.07;99125.03;3548950;27;20054;-60
2021/04/08 07:32:00;;;;;;;24.88;14.13;;;;;;;2.13;76.94;99122.38;3552310;27;20437;-60
2021/04/08 07:33:41;;;;;;;22.27;12.80;;;;;;;2.07;77.41;99133.22;3550236;27;20050;-59
2021/04/08 07:35:23;;;;;;;30.13;12.82;;;;;;;2.05;77.63;99129.72;3551804;27;20062;-60
2021/04/08 07:37:05;;;;;;;23.33;12.60;;;;;;;2.04;77.05;99139.91;3548847;27;20043;-60
2021/04/08 07:38:48;;;;;;;25.92;13.20;;;;;;;2.04;77.96;99143.34;3550342;27;20043;-59
2021/04/08 07:40:29;;;;;;;20.63;11.13;;;;;;;2.04;77.54;99137.34;3550263;27;20047;-60
2021/04/08 07:42:13;;;;;;;24.15;13.43;;;;;;;2.06;78.45;99136.59;3548531;27;20054;-60
2021/04/08 07:43:57;;;;;;;23.42;13.57;;;;;;;2.08;78.11;99134.09;3552368;27;20058;-60
2021/04/08 07:45:40;;;;;;;24.13;13.23;;;;;;;2.11;78.49;99142.78;3548579;27;20150;-60
2021/04/08 07:47:24;;;;;;;27.23;13.23;;;;;;;2.18;78.31;99143.84;3550748;27;20050;-60
2021/04/08 07:49:26;;;;;;;21.45;11.52;;;;;;;2.27;77.85;99140.78;3550406;27;20129;-60
2021/04/08 07:51:07;;;;;;;15.80;8.50;;;;;;;2.39;77.30;99142.94;3548481;27;20062;-48
2021/04/08 07:52:50;;;;;;;25.15;13.02;;;;;;;2.41;77.27;99141.31;3552276;27;20057;-49
2021/04/08 07:54:31;;;;;;;20.60;11.20;;;;;;;2.47;76.62;99150.09;3550776;27;20419;-48
2021/04/08 07:56:29;;;;;;;24.77;12.45;;;;;;;2.61;77.17;99148.03;3551200;27;20054;-49
2021/04/08 07:58:13;;;;;;;14.55;7.72;;;;;;;2.79;75.80;99145.28;3552464;27;20127;-50
2021/04/08 07:59:55;;;;;;;23.77;13.07;;;;;;;2.89;76.49;99149.06;3549561;27;20040;-49